sensor_id;sensor_type;location;lat;lon;timestamp;temperature;humidity
69162;DHT22;56269;51.738;21.652;2023-02-15T00:01:55;3.06;99.99
69162;DHT22;56269;51.738;21.652;2023-02-15T00:04:23;3.05;99.99
69162;DHT22;56269;51.738;21.652;2023-02-15T00:06:50;3.06;99.99
69162;DHT22;56269;51.738;21.652;2023-02-15T00:09:16;3.08;99.99
69162;DHT22;56269;51.738;21.652;2023-02-15T00:11:43;3.06;99.99
69162;DHT22;56269;51.738;21.652;2023-02-15T00:14:21;3.05;99.99
69162;DHT22;56269;51.738;21.652;2023-02-15T00:16:50;3.05;99.99
69162;DHT22;56269;51.738;21.652;2023-02-15T00:19:17;3.02;99.99
69162;DHT22;56269;51.738;21.652;2023-02-15T00:21:44;2.99;99.99
69162;DHT22;56269;51.738;21.652;2023-02-15T00:24:12;2.99;99.99
69162;DHT22;56269;51.738;21.652;2023-02-15T00:26:40;2.99;99.99
69162;DHT22;56269;51.738;21.652;2023-02-15T00:29:07;2.99;99.99
69162;DHT22;56269;51.738;21.652;2023-02-15T00:31:34;2.99;99.99
69162;DHT22;56269;51.738;21.652;2023-02-15T00:34:06;2.96;99.99
69162;DHT22;56269;51.738;21.652;2023-02-15T00:36:33;2.99;99.99
69162;DHT22;56269;51.738;21.652;2023-02-15T00:38:59;2.99;99.99
69162;DHT22;56269;51.738;21.652;2023-02-15T00:41:26;2.93;99.99
69162;DHT22;56269;51.738;21.652;2023-02-15T00:43:52;2.95;99.99
69162;DHT22;56269;51.738;21.652;2023-02-15T00:46:18;2.93;99.99
69162;DHT22;56269;51.738;21.652;2023-02-15T00:48:47;2.92;99.99
69162;DHT22;56269;51.738;21.652;2023-02-15T00:51:14;2.91;99.99
69162;DHT22;56269;51.738;21.652;2023-02-15T00:53:40;2.95;99.99
69162;DHT22;56269;51.738;21.652;2023-02-15T00:56:07;2.93;99.99
69162;DHT22;56269;51.738;21.652;2023-02-15T00:58:33;2.92;99.99
69162;DHT22;56269;51.738;21.652;2023-02-15T01:01:09;2.92;99.99
69162;DHT22;56269;51.738;21.652;2023-02-15T01:03:35;2.92;99.99
69162;DHT22;56269;51.738;21.652;2023-02-15T01:06:02;2.89;99.99
69162;DHT22;56269;51.738;21.652;2023-02-15T01:08:29;2.91;99.99
69162;DHT22;56269;51.738;21.652;2023-02-15T01:10:56;2.89;99.99
69162;DHT22;56269;51.738;21.652;2023-02-15T01:13:22;2.88;99.99
69162;DHT22;56269;51.738;21.652;2023-02-15T01:15:54;2.92;99.99
69162;DHT22;56269;51.738;21.652;2023-02-15T01:18:21;2.93;99.99
69162;DHT22;56269;51.738;21.652;2023-02-15T01:20:47;2.92;99.99
69162;DHT22;56269;51.738;21.652;2023-02-15T01:23:13;2.92;99.99
69162;DHT22;56269;51.738;21.652;2023-02-15T01:25:40;2.92;99.99
69162;DHT22;56269;51.738;21.652;2023-02-15T01:28:06;2.91;99.99
69162;DHT22;56269;51.738;21.652;2023-02-15T01:30:34;2.89;99.99
69162;DHT22;56269;51.738;21.652;2023-02-15T01:33:00;2.91;99.99
69162;DHT22;56269;51.738;21.652;2023-02-15T01:35:29;2.89;99.99
69162;DHT22;56269;51.738;21.652;2023-02-15T01:37:56;2.87;99.99
69162;DHT22;56269;51.738;21.652;2023-02-15T01:40:23;2.89;99.99
69162;DHT22;56269;51.738;21.652;2023-02-15T01:42:54;2.88;99.99
69162;DHT22;56269;51.738;21.652;2023-02-15T01:45:30;2.87;99.99
69162;DHT22;56269;51.738;21.652;2023-02-15T01:51:05;2.84;99.99
69162;DHT22;56269;51.738;21.652;2023-02-15T01:53:38;2.81;99.99
69162;DHT22;56269;51.738;21.652;2023-02-15T01:56:13;2.79;99.99
69162;DHT22;56269;51.738;21.652;2023-02-15T01:58:44;2.81;99.99
69162;DHT22;56269;51.738;21.652;2023-02-15T02:01:11;2.78;99.99
69162;DHT22;56269;51.738;21.652;2023-02-15T02:04:02;2.78;99.99
69162;DHT22;56269;51.738;21.652;2023-02-15T02:06:32;2.77;99.99
69162;DHT22;56269;51.738;21.652;2023-02-15T02:09:00;2.78;99.99
69162;DHT22;56269;51.738;21.652;2023-02-15T02:11:26;2.74;99.99
69162;DHT22;56269;51.738;21.652;2023-02-15T02:13:54;2.74;99.99
69162;DHT22;56269;51.738;21.652;2023-02-15T02:28:04;2.71;99.99
69162;DHT22;56269;51.738;21.652;2023-02-15T02:33:36;2.69;99.99
69162;DHT22;56269;51.738;21.652;2023-02-15T02:36:19;2.69;99.99
69162;DHT22;56269;51.738;21.652;2023-02-15T02:41:42;2.71;99.99
69162;DHT22;56269;51.738;21.652;2023-02-15T02:44:17;2.77;99.99
69162;DHT22;56269;51.738;21.652;2023-02-15T02:47:17;2.74;99.99
69162;DHT22;56269;51.738;21.652;2023-02-15T02:49:46;2.72;99.99
69162;DHT22;56269;51.738;21.652;2023-02-15T02:55:20;2.74;99.99
69162;DHT22;56269;51.738;21.652;2023-02-15T02:57:57;2.72;99.99
69162;DHT22;56269;51.738;21.652;2023-02-15T03:00:32;2.72;99.99
69162;DHT22;56269;51.738;21.652;2023-02-15T03:03:04;2.69;99.99
69162;DHT22;56269;51.738;21.652;2023-02-15T03:05:34;2.69;99.99
69162;DHT22;56269;51.738;21.652;2023-02-15T03:08:04;2.68;99.99
69162;DHT22;56269;51.738;21.652;2023-02-15T03:10:33;2.68;99.99
69162;DHT22;56269;51.738;21.652;2023-02-15T03:13:00;2.69;99.99
69162;DHT22;56269;51.738;21.652;2023-02-15T03:15:34;2.68;99.99
69162;DHT22;56269;51.738;21.652;2023-02-15T03:18:23;2.65;99.99
69162;DHT22;56269;51.738;21.652;2023-02-15T03:20:52;2.62;99.99
69162;DHT22;56269;51.738;21.652;2023-02-15T03:23:22;2.61;99.99
69162;DHT22;56269;51.738;21.652;2023-02-15T03:25:52;2.59;99.99
69162;DHT22;56269;51.738;21.652;2023-02-15T03:28:29;2.61;99.99
69162;DHT22;56269;51.738;21.652;2023-02-15T03:31:00;2.59;99.99
69162;DHT22;56269;51.738;21.652;2023-02-15T03:33:29;2.57;99.99
69162;DHT22;56269;51.738;21.652;2023-02-15T03:36:07;2.55;99.99
69162;DHT22;56269;51.738;21.652;2023-02-15T03:41:40;2.54;99.99
69162;DHT22;56269;51.738;21.652;2023-02-15T03:44:25;2.55;99.99
69162;DHT22;56269;51.738;21.652;2023-02-15T03:47:11;2.58;99.99
69162;DHT22;56269;51.738;21.652;2023-02-15T03:49:45;2.57;99.99
69162;DHT22;56269;51.738;21.652;2023-02-15T03:52:14;2.52;99.99
69162;DHT22;56269;51.738;21.652;2023-02-15T03:54:42;2.49;99.99
69162;DHT22;56269;51.738;21.652;2023-02-15T03:57:22;2.48;99.99
69162;DHT22;56269;51.738;21.652;2023-02-15T04:00:22;2.51;99.99
69162;DHT22;56269;51.738;21.652;2023-02-15T04:03:28;2.49;99.99
69162;DHT22;56269;51.738;21.652;2023-02-15T04:05:57;2.45;99.99
69162;DHT22;56269;51.738;21.652;2023-02-15T04:08:23;2.49;99.99
69162;DHT22;56269;51.738;21.652;2023-02-15T04:11:09;2.47;99.99
69162;DHT22;56269;51.738;21.652;2023-02-15T04:13:35;2.42;99.99
69162;DHT22;56269;51.738;21.652;2023-02-15T04:16:01;2.40;99.99
69162;DHT22;56269;51.738;21.652;2023-02-15T04:18:33;2.41;99.99
69162;DHT22;56269;51.738;21.652;2023-02-15T04:21:19;2.44;99.99
69162;DHT22;56269;51.738;21.652;2023-02-15T04:24:04;2.42;99.99
69162;DHT22;56269;51.738;21.652;2023-02-15T04:26:48;2.40;99.99
69162;DHT22;56269;51.738;21.652;2023-02-15T04:29:19;2.41;99.99
69162;DHT22;56269;51.738;21.652;2023-02-15T04:31:46;2.44;99.99
69162;DHT22;56269;51.738;21.652;2023-02-15T04:34:13;2.41;99.99
69162;DHT22;56269;51.738;21.652;2023-02-15T04:36:40;2.42;99.99
69162;DHT22;56269;51.738;21.652;2023-02-15T04:39:07;2.42;99.99
69162;DHT22;56269;51.738;21.652;2023-02-15T04:41:36;2.42;99.99
69162;DHT22;56269;51.738;21.652;2023-02-15T04:44:03;2.42;99.99
69162;DHT22;56269;51.738;21.652;2023-02-15T04:46:29;2.47;99.99
69162;DHT22;56269;51.738;21.652;2023-02-15T04:48:56;2.47;99.99
69162;DHT22;56269;51.738;21.652;2023-02-15T04:51:22;2.47;99.99
69162;DHT22;56269;51.738;21.652;2023-02-15T04:53:52;2.47;99.99
69162;DHT22;56269;51.738;21.652;2023-02-15T04:56:19;2.44;99.99
69162;DHT22;56269;51.738;21.652;2023-02-15T04:58:46;2.42;99.99
69162;DHT22;56269;51.738;21.652;2023-02-15T05:01:12;2.42;99.99
69162;DHT22;56269;51.738;21.652;2023-02-15T05:03:38;2.44;99.99
69162;DHT22;56269;51.738;21.652;2023-02-15T05:06:05;2.44;99.99
69162;DHT22;56269;51.738;21.652;2023-02-15T05:08:31;2.44;99.99
69162;DHT22;56269;51.738;21.652;2023-02-15T05:10:57;2.44;99.99
69162;DHT22;56269;51.738;21.652;2023-02-15T05:13:24;2.42;99.99
69162;DHT22;56269;51.738;21.652;2023-02-15T05:15:52;2.47;99.99
69162;DHT22;56269;51.738;21.652;2023-02-15T05:18:20;2.44;99.99
69162;DHT22;56269;51.738;21.652;2023-02-15T05:20:47;2.47;99.99
69162;DHT22;56269;51.738;21.652;2023-02-15T05:23:13;2.48;99.99
69162;DHT22;56269;51.738;21.652;2023-02-15T05:25:40;2.48;99.99
69162;DHT22;56269;51.738;21.652;2023-02-15T05:28:27;2.45;99.99
69162;DHT22;56269;51.738;21.652;2023-02-15T05:31:14;2.47;99.99
69162;DHT22;56269;51.738;21.652;2023-02-15T05:33:41;2.49;99.99
69162;DHT22;56269;51.738;21.652;2023-02-15T05:36:08;2.47;99.99
69162;DHT22;56269;51.738;21.652;2023-02-15T05:38:35;2.45;99.99
69162;DHT22;56269;51.738;21.652;2023-02-15T05:41:05;2.42;99.99
69162;DHT22;56269;51.738;21.652;2023-02-15T05:43:32;2.41;99.99
69162;DHT22;56269;51.738;21.652;2023-02-15T05:46:11;2.41;99.99
69162;DHT22;56269;51.738;21.652;2023-02-15T05:48:38;2.40;99.99
69162;DHT22;56269;51.738;21.652;2023-02-15T05:51:12;2.34;99.99
69162;DHT22;56269;51.738;21.652;2023-02-15T05:53:40;2.37;99.99
69162;DHT22;56269;51.738;21.652;2023-02-15T05:56:08;2.34;99.99
69162;DHT22;56269;51.738;21.652;2023-02-15T05:58:37;2.34;99.99
69162;DHT22;56269;51.738;21.652;2023-02-15T06:01:22;2.34;99.99
69162;DHT22;56269;51.738;21.652;2023-02-15T06:03:49;2.34;99.99
69162;DHT22;56269;51.738;21.652;2023-02-15T06:06:16;2.34;99.99
69162;DHT22;56269;51.738;21.652;2023-02-15T06:08:42;2.30;99.99
69162;DHT22;56269;51.738;21.652;2023-02-15T06:11:08;2.31;99.99
69162;DHT22;56269;51.738;21.652;2023-02-15T06:13:35;2.33;99.99
69162;DHT22;56269;51.738;21.652;2023-02-15T06:16:01;2.33;99.99
69162;DHT22;56269;51.738;21.652;2023-02-15T06:18:27;2.31;99.99
69162;DHT22;56269;51.738;21.652;2023-02-15T06:20:54;2.33;99.99
69162;DHT22;56269;51.738;21.652;2023-02-15T06:23:20;2.33;99.99
69162;DHT22;56269;51.738;21.652;2023-02-15T06:25:46;2.31;99.99
69162;DHT22;56269;51.738;21.652;2023-02-15T06:28:12;2.30;99.99
69162;DHT22;56269;51.738;21.652;2023-02-15T06:30:39;2.30;99.99
69162;DHT22;56269;51.738;21.652;2023-02-15T06:33:06;2.33;99.99
69162;DHT22;56269;51.738;21.652;2023-02-15T06:35:32;2.33;99.99
69162;DHT22;56269;51.738;21.652;2023-02-15T06:37:58;2.33;99.99
69162;DHT22;56269;51.738;21.652;2023-02-15T06:40:24;2.30;99.99
69162;DHT22;56269;51.738;21.652;2023-02-15T06:42:50;2.26;99.99
69162;DHT22;56269;51.738;21.652;2023-02-15T06:45:16;2.34;99.99
69162;DHT22;56269;51.738;21.652;2023-02-15T06:47:43;2.36;99.99
69162;DHT22;56269;51.738;21.652;2023-02-15T06:50:09;2.36;99.99
69162;DHT22;56269;51.738;21.652;2023-02-15T06:52:36;2.34;99.99
69162;DHT22;56269;51.738;21.652;2023-02-15T06:55:02;2.33;99.99
69162;DHT22;56269;51.738;21.652;2023-02-15T06:57:29;2.30;99.99
69162;DHT22;56269;51.738;21.652;2023-02-15T06:59:55;2.31;99.99
69162;DHT22;56269;51.738;21.652;2023-02-15T07:02:24;2.30;99.99
69162;DHT22;56269;51.738;21.652;2023-02-15T07:04:50;2.33;99.99
69162;DHT22;56269;51.738;21.652;2023-02-15T07:07:16;2.31;99.99
69162;DHT22;56269;51.738;21.652;2023-02-15T07:09:42;2.33;99.99
69162;DHT22;56269;51.738;21.652;2023-02-15T07:12:09;2.33;99.99
69162;DHT22;56269;51.738;21.652;2023-02-15T07:14:54;2.33;99.99
69162;DHT22;56269;51.738;21.652;2023-02-15T07:17:20;2.36;99.99
69162;DHT22;56269;51.738;21.652;2023-02-15T07:19:46;2.37;99.99
69162;DHT22;56269;51.738;21.652;2023-02-15T07:22:13;2.40;99.99
69162;DHT22;56269;51.738;21.652;2023-02-15T07:24:39;2.38;99.99
69162;DHT22;56269;51.738;21.652;2023-02-15T07:27:07;2.33;99.99
69162;DHT22;56269;51.738;21.652;2023-02-15T07:29:33;2.34;99.99
69162;DHT22;56269;51.738;21.652;2023-02-15T07:31:59;2.31;99.99
69162;DHT22;56269;51.738;21.652;2023-02-15T07:34:25;2.36;99.99
69162;DHT22;56269;51.738;21.652;2023-02-15T07:36:51;2.33;99.99
69162;DHT22;56269;51.738;21.652;2023-02-15T07:39:19;2.36;99.99
69162;DHT22;56269;51.738;21.652;2023-02-15T07:41:46;2.38;99.99
69162;DHT22;56269;51.738;21.652;2023-02-15T07:44:13;2.38;99.99
69162;DHT22;56269;51.738;21.652;2023-02-15T07:46:40;2.33;99.99
69162;DHT22;56269;51.738;21.652;2023-02-15T07:49:06;2.34;99.99
69162;DHT22;56269;51.738;21.652;2023-02-15T07:51:32;2.37;99.99
69162;DHT22;56269;51.738;21.652;2023-02-15T07:53:58;2.28;99.99
69162;DHT22;56269;51.738;21.652;2023-02-15T07:56:25;2.33;99.99
69162;DHT22;56269;51.738;21.652;2023-02-15T07:58:51;2.33;99.99
69162;DHT22;56269;51.738;21.652;2023-02-15T08:01:20;2.40;99.99
69162;DHT22;56269;51.738;21.652;2023-02-15T08:03:47;2.37;99.99
69162;DHT22;56269;51.738;21.652;2023-02-15T08:06:13;2.37;99.99
69162;DHT22;56269;51.738;21.652;2023-02-15T08:08:40;2.38;99.99
69162;DHT22;56269;51.738;21.652;2023-02-15T08:11:14;2.38;99.99
69162;DHT22;56269;51.738;21.652;2023-02-15T08:14:00;2.30;99.99
69162;DHT22;56269;51.738;21.652;2023-02-15T08:19:24;2.30;99.99
69162;DHT22;56269;51.738;21.652;2023-02-15T08:21:53;2.27;99.99
69162;DHT22;56269;51.738;21.652;2023-02-15T08:24:21;2.24;99.99
69162;DHT22;56269;51.738;21.652;2023-02-15T08:26:49;2.28;99.99
69162;DHT22;56269;51.738;21.652;2023-02-15T08:29:17;2.30;99.99
69162;DHT22;56269;51.738;21.652;2023-02-15T08:31:44;2.33;99.99
69162;DHT22;56269;51.738;21.652;2023-02-15T08:34:15;2.36;99.99
69162;DHT22;56269;51.738;21.652;2023-02-15T08:36:43;2.33;99.99
69162;DHT22;56269;51.738;21.652;2023-02-15T08:39:11;2.30;99.99
69162;DHT22;56269;51.738;21.652;2023-02-15T08:41:38;2.36;99.99
69162;DHT22;56269;51.738;21.652;2023-02-15T08:44:08;2.34;99.99
69162;DHT22;56269;51.738;21.652;2023-02-15T08:46:37;2.37;99.99
69162;DHT22;56269;51.738;21.652;2023-02-15T08:49:03;2.28;99.99
69162;DHT22;56269;51.738;21.652;2023-02-15T08:51:32;2.30;99.99
69162;DHT22;56269;51.738;21.652;2023-02-15T08:54:00;2.30;99.99
69162;DHT22;56269;51.738;21.652;2023-02-15T08:56:33;2.37;99.99
69162;DHT22;56269;51.738;21.652;2023-02-15T08:58:59;2.37;99.99
69162;DHT22;56269;51.738;21.652;2023-02-15T09:01:28;2.38;99.99
69162;DHT22;56269;51.738;21.652;2023-02-15T09:03:57;2.33;99.99
69162;DHT22;56269;51.738;21.652;2023-02-15T09:06:24;2.30;99.99
69162;DHT22;56269;51.738;21.652;2023-02-15T09:08:51;2.31;99.99
69162;DHT22;56269;51.738;21.652;2023-02-15T09:11:22;2.37;99.99
69162;DHT22;56269;51.738;21.652;2023-02-15T09:13:52;2.38;99.99
69162;DHT22;56269;51.738;21.652;2023-02-15T09:16:20;2.38;99.99
69162;DHT22;56269;51.738;21.652;2023-02-15T09:18:47;2.26;99.99
69162;DHT22;56269;51.738;21.652;2023-02-15T09:21:16;2.21;99.99
69162;DHT22;56269;51.738;21.652;2023-02-15T09:23:44;2.26;99.99
69162;DHT22;56269;51.738;21.652;2023-02-15T09:26:22;2.23;99.99
69162;DHT22;56269;51.738;21.652;2023-02-15T09:28:52;2.30;99.99
69162;DHT22;56269;51.738;21.652;2023-02-15T09:31:24;2.24;99.99
69162;DHT22;56269;51.738;21.652;2023-02-15T09:33:50;2.31;99.99
69162;DHT22;56269;51.738;21.652;2023-02-15T09:38:56;2.30;99.99
69162;DHT22;56269;51.738;21.652;2023-02-15T09:44:38;2.41;99.99
69162;DHT22;56269;51.738;21.652;2023-02-15T09:55:42;2.49;99.99
69162;DHT22;56269;51.738;21.652;2023-02-15T09:58:48;2.51;99.99
69162;DHT22;56269;51.738;21.652;2023-02-15T10:01:46;2.36;99.99
69162;DHT22;56269;51.738;21.652;2023-02-15T10:04:42;2.37;99.99
69162;DHT22;56269;51.738;21.652;2023-02-15T10:15:46;2.47;99.99
69162;DHT22;56269;51.738;21.652;2023-02-15T10:21:44;2.42;99.99
69162;DHT22;56269;51.738;21.652;2023-02-15T10:24:43;2.40;99.99
69162;DHT22;56269;51.738;21.652;2023-02-15T10:27:16;2.41;99.99
69162;DHT22;56269;51.738;21.652;2023-02-15T10:30:08;2.49;99.99
69162;DHT22;56269;51.738;21.652;2023-02-15T10:38:27;2.42;99.99
69162;DHT22;56269;51.738;21.652;2023-02-15T10:41:16;2.40;99.99
69162;DHT22;56269;51.738;21.652;2023-02-15T10:43:55;2.57;99.99
69162;DHT22;56269;51.738;21.652;2023-02-15T10:46:51;2.59;99.99
69162;DHT22;56269;51.738;21.652;2023-02-15T10:54:51;2.62;99.99
69162;DHT22;56269;51.738;21.652;2023-02-15T10:57:26;2.66;99.76
69162;DHT22;56269;51.738;21.652;2023-02-15T11:00:22;2.65;99.90
69162;DHT22;56269;51.738;21.652;2023-02-15T11:03:14;2.74;99.99
69162;DHT22;56269;51.738;21.652;2023-02-15T11:08:29;2.65;99.99
69162;DHT22;56269;51.738;21.652;2023-02-15T11:11:04;2.59;99.99
69162;DHT22;56269;51.738;21.652;2023-02-15T11:13:36;2.66;99.99
69162;DHT22;56269;51.738;21.652;2023-02-15T11:16:08;2.69;99.60
69162;DHT22;56269;51.738;21.652;2023-02-15T11:19:03;2.78;99.82
69162;DHT22;56269;51.738;21.652;2023-02-15T11:21:36;2.61;99.32
69162;DHT22;56269;51.738;21.652;2023-02-15T11:24:10;2.62;99.93
69162;DHT22;56269;51.738;21.652;2023-02-15T11:26:46;2.64;99.85
69162;DHT22;56269;51.738;21.652;2023-02-15T11:32:18;2.62;99.99
69162;DHT22;56269;51.738;21.652;2023-02-15T11:35:10;2.74;99.99
69162;DHT22;56269;51.738;21.652;2023-02-15T11:40:32;2.78;99.38
69162;DHT22;56269;51.738;21.652;2023-02-15T11:43:13;2.82;99.29
69162;DHT22;56269;51.738;21.652;2023-02-15T11:45:42;2.82;99.25
69162;DHT22;56269;51.738;21.652;2023-02-15T11:48:11;2.81;99.36
69162;DHT22;56269;51.738;21.652;2023-02-15T11:50:38;2.74;98.57
69162;DHT22;56269;51.738;21.652;2023-02-15T11:55:42;2.87;99.02
69162;DHT22;56269;51.738;21.652;2023-02-15T12:03:47;2.91;98.42
69162;DHT22;56269;51.738;21.652;2023-02-15T12:06:22;2.87;98.99
69162;DHT22;56269;51.738;21.652;2023-02-15T12:09:05;2.84;98.56
69162;DHT22;56269;51.738;21.652;2023-02-15T12:11:36;2.66;99.33
69162;DHT22;56269;51.738;21.652;2023-02-15T12:14:08;2.78;99.00
69162;DHT22;56269;51.738;21.652;2023-02-15T12:16:55;2.69;99.22
69162;DHT22;56269;51.738;21.652;2023-02-15T12:21:58;2.66;99.27
69162;DHT22;56269;51.738;21.652;2023-02-15T12:24:32;2.66;99.44
69162;DHT22;56269;51.738;21.652;2023-02-15T12:27:06;2.62;99.33
69162;DHT22;56269;51.738;21.652;2023-02-15T12:29:41;2.54;99.15
69162;DHT22;56269;51.738;21.652;2023-02-15T12:32:18;2.59;99.36
69162;DHT22;56269;51.738;21.652;2023-02-15T12:34:45;2.71;99.44
69162;DHT22;56269;51.738;21.652;2023-02-15T12:37:21;2.68;98.41
69162;DHT22;56269;51.738;21.652;2023-02-15T12:39:57;2.79;98.47
69162;DHT22;56269;51.738;21.652;2023-02-15T12:42:28;2.77;98.48
69162;DHT22;56269;51.738;21.652;2023-02-15T12:45:30;2.72;98.57
69162;DHT22;56269;51.738;21.652;2023-02-15T12:50:45;2.62;98.59
69162;DHT22;56269;51.738;21.652;2023-02-15T12:53:21;2.62;99.39
69162;DHT22;56269;51.738;21.652;2023-02-15T12:56:00;2.65;98.94
69162;DHT22;56269;51.738;21.652;2023-02-15T12:58:33;2.61;98.33
69162;DHT22;56269;51.738;21.652;2023-02-15T13:03:51;2.84;98.65
69162;DHT22;56269;51.738;21.652;2023-02-15T13:06:20;2.89;97.87
69162;DHT22;56269;51.738;21.652;2023-02-15T13:08:52;2.91;98.05
69162;DHT22;56269;51.738;21.652;2023-02-15T13:11:24;3.02;97.83
69162;DHT22;56269;51.738;21.652;2023-02-15T13:13:56;3.06;97.14
69162;DHT22;56269;51.738;21.652;2023-02-15T13:16:44;2.99;98.02
69162;DHT22;56269;51.738;21.652;2023-02-15T13:19:20;2.78;97.13
69162;DHT22;56269;51.738;21.652;2023-02-15T13:21:51;2.74;97.47
69162;DHT22;56269;51.738;21.652;2023-02-15T13:24:28;2.87;97.79
69162;DHT22;56269;51.738;21.652;2023-02-15T13:26:57;2.79;97.53
69162;DHT22;56269;51.738;21.652;2023-02-15T13:29:33;2.79;97.72
69162;DHT22;56269;51.738;21.652;2023-02-15T13:34:46;2.79;98.16
69162;DHT22;56269;51.738;21.652;2023-02-15T13:39:57;2.78;97.69
69162;DHT22;56269;51.738;21.652;2023-02-15T13:42:41;2.84;97.74
69162;DHT22;56269;51.738;21.652;2023-02-15T13:45:36;2.88;97.54
69162;DHT22;56269;51.738;21.652;2023-02-15T13:48:18;2.82;96.77
69162;DHT22;56269;51.738;21.652;2023-02-15T13:51:12;2.88;96.92
69162;DHT22;56269;51.738;21.652;2023-02-15T13:59:20;2.75;97.53
69162;DHT22;56269;51.738;21.652;2023-02-15T14:01:58;2.74;97.15
69162;DHT22;56269;51.738;21.652;2023-02-15T14:12:24;2.93;96.68
69162;DHT22;56269;51.738;21.652;2023-02-15T14:15:06;2.98;96.61
69162;DHT22;56269;51.738;21.652;2023-02-15T14:23:40;2.87;96.40
69162;DHT22;56269;51.738;21.652;2023-02-15T14:26:22;2.88;96.71
69162;DHT22;56269;51.738;21.652;2023-02-15T14:29:15;2.85;96.36
69162;DHT22;56269;51.738;21.652;2023-02-15T14:31:49;2.85;96.20
69162;DHT22;56269;51.738;21.652;2023-02-15T14:36:45;2.98;96.20
69162;DHT22;56269;51.738;21.652;2023-02-15T14:39:41;2.96;96.23
69162;DHT22;56269;51.738;21.652;2023-02-15T14:42:41;2.88;95.95
69162;DHT22;56269;51.738;21.652;2023-02-15T14:45:34;2.84;96.11
69162;DHT22;56269;51.738;21.652;2023-02-15T14:48:21;2.81;96.19
69162;DHT22;56269;51.738;21.652;2023-02-15T14:50:50;2.84;96.36
69162;DHT22;56269;51.738;21.652;2023-02-15T14:53:33;2.84;96.62
69162;DHT22;56269;51.738;21.652;2023-02-15T14:58:37;2.87;96.58
69162;DHT22;56269;51.738;21.652;2023-02-15T15:01:11;2.89;95.60
69162;DHT22;56269;51.738;21.652;2023-02-15T15:03:50;2.84;95.95
69162;DHT22;56269;51.738;21.652;2023-02-15T15:06:36;2.75;95.80
69162;DHT22;56269;51.738;21.652;2023-02-15T15:14:03;2.66;96.25
69162;DHT22;56269;51.738;21.652;2023-02-15T15:16:46;2.61;96.17
69162;DHT22;56269;51.738;21.652;2023-02-15T15:22:24;2.59;96.12
69162;DHT22;56269;51.738;21.652;2023-02-15T15:27:52;2.61;96.20
69162;DHT22;56269;51.738;21.652;2023-02-15T15:36:06;2.59;96.64
69162;DHT22;56269;51.738;21.652;2023-02-15T15:41:35;2.61;96.86
69162;DHT22;56269;51.738;21.652;2023-02-15T15:49:39;2.57;97.37
69162;DHT22;56269;51.738;21.652;2023-02-15T15:52:18;2.54;96.84
69162;DHT22;56269;51.738;21.652;2023-02-15T15:54:46;2.44;97.02
69162;DHT22;56269;51.738;21.652;2023-02-15T15:57:29;2.41;97.00
69162;DHT22;56269;51.738;21.652;2023-02-15T15:59:56;2.40;97.32
69162;DHT22;56269;51.738;21.652;2023-02-15T16:02:26;2.34;97.45
69162;DHT22;56269;51.738;21.652;2023-02-15T16:04:53;2.31;97.57
69162;DHT22;56269;51.738;21.652;2023-02-15T16:12:27;2.23;97.64
69162;DHT22;56269;51.738;21.652;2023-02-15T16:14:55;2.20;97.58
69162;DHT22;56269;51.738;21.652;2023-02-15T16:17:25;2.06;97.85
69162;DHT22;56269;51.738;21.652;2023-02-15T16:20:00;1.85;98.48
69162;DHT22;56269;51.738;21.652;2023-02-15T16:22:28;1.65;98.77
69162;DHT22;56269;51.738;21.652;2023-02-15T16:27:44;1.34;99.81
69162;DHT22;56269;51.738;21.652;2023-02-15T16:30:28;1.21;99.99
69162;DHT22;56269;51.738;21.652;2023-02-15T16:33:15;1.17;99.99
69162;DHT22;56269;51.738;21.652;2023-02-15T16:35:58;0.87;99.99
69162;DHT22;56269;51.738;21.652;2023-02-15T16:41:27;0.54;99.99
69162;DHT22;56269;51.738;21.652;2023-02-15T16:44:00;0.52;99.99
69162;DHT22;56269;51.738;21.652;2023-02-15T16:46:31;0.41;99.99
69162;DHT22;56269;51.738;21.652;2023-02-15T16:49:02;0.36;99.99
69162;DHT22;56269;51.738;21.652;2023-02-15T16:51:33;0.63;99.99
69162;DHT22;56269;51.738;21.652;2023-02-15T16:54:16;0.76;99.99
69162;DHT22;56269;51.738;21.652;2023-02-15T16:56:46;0.52;99.99
69162;DHT22;56269;51.738;21.652;2023-02-15T17:01:53;0.23;99.99
69162;DHT22;56269;51.738;21.652;2023-02-15T17:07:17;-0.12;99.99
69162;DHT22;56269;51.738;21.652;2023-02-15T17:09:56;-0.26;99.99
69162;DHT22;56269;51.738;21.652;2023-02-15T17:12:45;-0.39;99.99
69162;DHT22;56269;51.738;21.652;2023-02-15T17:20:41;-0.60;99.99
69162;DHT22;56269;51.738;21.652;2023-02-15T17:26:21;-0.84;99.99
69162;DHT22;56269;51.738;21.652;2023-02-15T17:31:48;-0.90;99.99
69162;DHT22;56269;51.738;21.652;2023-02-15T17:40:23;-1.14;99.99
69162;DHT22;56269;51.738;21.652;2023-02-15T17:42:52;-1.21;99.99
69162;DHT22;56269;51.738;21.652;2023-02-15T17:45:21;-1.24;99.99
69162;DHT22;56269;51.738;21.652;2023-02-15T17:47:52;-1.27;99.99
69162;DHT22;56269;51.738;21.652;2023-02-15T17:50:25;-1.28;99.99
69162;DHT22;56269;51.738;21.652;2023-02-15T17:52:55;-1.32;99.99
69162;DHT22;56269;51.738;21.652;2023-02-15T17:55:23;-1.32;99.99
69162;DHT22;56269;51.738;21.652;2023-02-15T17:58:12;-1.34;99.99
69162;DHT22;56269;51.738;21.652;2023-02-15T18:00:43;-1.41;99.99
69162;DHT22;56269;51.738;21.652;2023-02-15T18:03:58;-1.49;99.99
69162;DHT22;56269;51.738;21.652;2023-02-15T18:06:43;-1.52;99.99
69162;DHT22;56269;51.738;21.652;2023-02-15T18:09:29;-1.60;99.99
69162;DHT22;56269;51.738;21.652;2023-02-15T18:12:24;-1.62;99.99
69162;DHT22;56269;51.738;21.652;2023-02-15T18:14:54;-1.67;99.99
69162;DHT22;56269;51.738;21.652;2023-02-15T18:17:32;-1.67;99.99
69162;DHT22;56269;51.738;21.652;2023-02-15T18:20:05;-1.73;99.99
69162;DHT22;56269;51.738;21.652;2023-02-15T18:22:33;-1.73;99.99
69162;DHT22;56269;51.738;21.652;2023-02-15T18:25:00;-1.77;99.99
69162;DHT22;56269;51.738;21.652;2023-02-15T18:27:27;-1.76;99.99
69162;DHT22;56269;51.738;21.652;2023-02-15T18:29:55;-1.77;99.99
69162;DHT22;56269;51.738;21.652;2023-02-15T18:32:30;-1.80;99.99
69162;DHT22;56269;51.738;21.652;2023-02-15T18:35:02;-1.89;99.99
69162;DHT22;56269;51.738;21.652;2023-02-15T18:37:31;-1.90;99.99
69162;DHT22;56269;51.738;21.652;2023-02-15T18:40:00;-1.91;99.99
69162;DHT22;56269;51.738;21.652;2023-02-15T18:42:32;-1.87;99.99
69162;DHT22;56269;51.738;21.652;2023-02-15T18:45:20;-1.80;99.99
69162;DHT22;56269;51.738;21.652;2023-02-15T18:47:50;-1.89;99.99
69162;DHT22;56269;51.738;21.652;2023-02-15T18:50:20;-1.84;99.99
69162;DHT22;56269;51.738;21.652;2023-02-15T18:52:49;-1.84;99.99
69162;DHT22;56269;51.738;21.652;2023-02-15T18:55:26;-1.90;99.99
69162;DHT22;56269;51.738;21.652;2023-02-15T18:57:55;-1.87;99.99
69162;DHT22;56269;51.738;21.652;2023-02-15T19:00:25;-1.87;99.99
69162;DHT22;56269;51.738;21.652;2023-02-15T19:02:56;-1.83;99.99
69162;DHT22;56269;51.738;21.652;2023-02-15T19:05:28;-1.82;99.99